Terminal Aerodrome Forecast
Issued by NWS

Home | Current Version | Previous Version | Text Only | Print | Product List | Glossary Off
Versions: 1 2 3 4 5 6 7 8 9 10 11 12 13 14 15 16 17

000
FTUS43 KGRB 032300
TAFATW
TAF
KATW 032321Z 0400/0424 20012G18KT P6SM SCT060
     FM040500 20010KT P6SM -SHRA SCT040 BKN060
      TEMPO 0405/0407 33020G30KT 3SM TSRA BKN040CB
     FM040900 32006KT P6SM SCT070 BKN090
     FM041500 04010KT P6SM SCT060
     FM042100 06008KT P6SM SCT250=

USA.gov is the U.S. government's official web portal to all federal, state and local government web resources and services.